createdAt,value
2022-12-11T00:01:17.746Z,1.20
2022-12-11T00:03:54.233Z,1.30
2022-12-11T00:06:31.741Z,1.30
2022-12-11T00:09:01.858Z,1.20
2022-12-11T00:11:35.306Z,1.00
2022-12-11T00:14:06.656Z,0.90
2022-12-11T00:16:46.947Z,0.80
2022-12-11T00:19:14.165Z,0.70
2022-12-11T00:21:47.959Z,0.70
2022-12-11T00:24:44.656Z,0.70
2022-12-11T00:27:11.823Z,0.80
2022-12-11T00:29:48.569Z,0.80
2022-12-11T00:32:28.491Z,0.80
2022-12-11T00:34:56.063Z,0.80
2022-12-11T00:37:29.484Z,0.50
2022-12-11T00:39:56.983Z,0.40
2022-12-11T00:42:57.916Z,0.40
2022-12-11T00:45:25.268Z,0.40
2022-12-11T00:47:59.496Z,0.40
2022-12-11T00:50:27.019Z,0.50
2022-12-11T00:53:09.852Z,0.40
2022-12-11T00:55:47.626Z,0.30
2022-12-11T00:58:20.917Z,0.10
2022-12-11T01:03:58.304Z,-0.10
2022-12-11T01:06:34.516Z,0.00
2022-12-11T01:09:08.414Z,0.10
2022-12-11T01:11:45.250Z,0.10
2022-12-11T01:14:33.466Z,0.10
2022-12-11T01:17:23.033Z,0.00
2022-12-11T01:19:56.576Z,0.10
2022-12-11T01:22:24.053Z,0.10
2022-12-11T01:25:01.470Z,0.10
2022-12-11T01:27:35.801Z,0.20
2022-12-11T01:30:10.633Z,0.30
2022-12-11T01:32:38.142Z,0.40
2022-12-11T01:35:13.674Z,0.40
2022-12-11T01:37:47.640Z,0.30
2022-12-11T01:40:16.379Z,0.50
2022-12-11T01:42:43.915Z,0.70
2022-12-11T01:45:46.600Z,0.80
2022-12-11T01:48:28.843Z,0.80
2022-12-11T01:51:06.441Z,0.80
2022-12-11T01:53:47.431Z,0.90
2022-12-11T01:56:14.811Z,1.00
2022-12-11T01:58:59.451Z,1.10
2022-12-11T02:01:57.335Z,0.90
2022-12-11T02:04:31.406Z,0.80
2022-12-11T02:06:58.794Z,0.80
2022-12-11T02:09:44.126Z,0.80
2022-12-11T02:12:39.931Z,0.80
2022-12-11T02:15:45.594Z,0.90
2022-12-11T02:18:48.500Z,0.70
2022-12-11T02:21:38.323Z,0.90
2022-12-11T02:24:45.524Z,0.70
2022-12-11T02:27:34.420Z,0.70
2022-12-11T02:30:07.733Z,0.80
2022-12-11T02:32:52.519Z,0.70
2022-12-11T02:35:24.676Z,0.70
2022-12-11T02:38:07.352Z,0.70
2022-12-11T02:40:35.806Z,0.70
2022-12-11T02:43:12.444Z,0.60
2022-12-11T02:45:40.681Z,0.50
2022-12-11T02:48:14.563Z,0.40
2022-12-11T02:50:52.411Z,0.50
2022-12-11T02:53:21.982Z,0.50
2022-12-11T02:56:03.396Z,0.40
2022-12-11T02:58:32.035Z,0.30
2022-12-11T03:01:08.571Z,0.20
2022-12-11T03:03:35.778Z,0.40
2022-12-11T03:06:02.777Z,0.50
2022-12-11T03:08:42.379Z,0.70
2022-12-11T03:11:19.314Z,0.50
2022-12-11T03:13:46.652Z,0.50
2022-12-11T03:16:42.555Z,0.60
2022-12-11T03:19:30.989Z,0.60
2022-12-11T03:22:17.438Z,0.50
2022-12-11T03:24:46.639Z,0.20
2022-12-11T03:27:43.432Z,0.20
2022-12-11T03:30:16.365Z,0.00
2022-12-11T03:33:03.321Z,0.00
2022-12-11T03:35:57.404Z,0.00
2022-12-11T03:38:45.459Z,-0.20
2022-12-11T03:41:18.836Z,0.00
2022-12-11T03:43:52.448Z,0.10
2022-12-11T03:46:27.444Z,-0.10
2022-12-11T03:49:27.652Z,-0.20
2022-12-11T03:52:02.579Z,-0.10
2022-12-11T03:54:29.835Z,-0.20
2022-12-11T03:56:58.520Z,-0.20
2022-12-11T03:59:32.385Z,-0.20
2022-12-11T04:02:02.011Z,-0.20
2022-12-11T04:04:35.528Z,-0.40
2022-12-11T04:07:04.146Z,-0.20
2022-12-11T04:09:39.607Z,0.00
2022-12-11T04:12:09.703Z,0.10
2022-12-11T04:14:43.588Z,0.10
2022-12-11T04:17:11.068Z,0.20
2022-12-11T04:19:44.407Z,0.30
2022-12-11T04:22:12.850Z,0.20
2022-12-11T04:24:53.461Z,-0.20
2022-12-11T04:27:54.525Z,-0.20
2022-12-11T04:33:27.736Z,-0.20
2022-12-11T04:35:55.040Z,-0.10
2022-12-11T04:38:28.496Z,0.10
2022-12-11T04:41:14.527Z,-0.20
2022-12-11T04:43:41.961Z,-0.20
2022-12-11T04:46:21.558Z,-0.40
2022-12-11T04:48:53.849Z,-0.30
2022-12-11T04:51:30.475Z,-0.20
2022-12-11T04:53:58.695Z,-0.30
2022-12-11T04:56:32.463Z,-0.40
2022-12-11T04:58:59.664Z,-0.30
2022-12-11T05:01:33.565Z,-0.20
2022-12-11T05:04:07.482Z,-0.20
2022-12-11T05:06:34.571Z,-0.20
2022-12-11T05:09:08.438Z,-0.20
2022-12-11T05:11:35.525Z,-0.10
2022-12-11T05:14:09.412Z,-0.20
2022-12-11T05:16:43.546Z,-0.20
2022-12-11T05:19:10.705Z,-0.10
2022-12-11T05:21:38.155Z,-0.10
2022-12-11T05:24:12.573Z,-0.30
2022-12-11T05:26:46.435Z,-0.40
2022-12-11T05:29:13.579Z,-0.20
2022-12-11T05:31:49.990Z,-0.10
2022-12-11T05:34:17.020Z,-0.20
2022-12-11T05:36:50.508Z,-0.20
2022-12-11T05:39:17.900Z,-0.30
2022-12-11T05:41:44.951Z,-0.30
2022-12-11T05:44:19.468Z,-0.30
2022-12-11T05:46:46.690Z,-0.30
2022-12-11T05:49:22.625Z,-0.20
2022-12-11T05:51:53.149Z,-0.10
2022-12-11T05:54:26.724Z,-0.20
2022-12-11T05:57:00.480Z,-0.10
2022-12-11T05:59:27.677Z,-0.20
2022-12-11T06:01:54.931Z,-0.10
2022-12-11T06:04:28.355Z,-0.30
2022-12-11T06:06:55.687Z,-0.40
2022-12-11T06:09:31.118Z,-0.60
2022-12-11T06:11:58.262Z,-0.70
2022-12-11T06:14:31.506Z,-0.70
2022-12-11T06:17:01.018Z,-0.90
2022-12-11T06:19:37.014Z,-0.90
2022-12-11T06:22:05.044Z,-0.80
2022-12-11T06:24:41.008Z,-0.80
2022-12-11T06:27:08.130Z,-0.60
2022-12-11T06:29:41.642Z,-0.60
2022-12-11T06:32:08.690Z,-0.80
2022-12-11T06:34:42.538Z,-0.70
2022-12-11T06:37:16.416Z,-0.90
2022-12-11T06:39:46.698Z,-1.00
2022-12-11T06:42:20.400Z,-0.90
2022-12-11T06:44:47.604Z,-0.90
2022-12-11T06:47:22.666Z,-0.80
2022-12-11T06:49:49.890Z,-0.70
2022-12-11T06:52:23.578Z,-0.60
2022-12-11T06:54:50.759Z,-0.70
2022-12-11T06:57:24.484Z,-0.50
2022-12-11T06:59:54.303Z,-0.50
2022-12-11T07:02:27.711Z,-0.60
2022-12-11T07:04:55.356Z,-0.50
2022-12-11T07:07:30.497Z,-0.50
2022-12-11T07:10:07.352Z,-0.90
2022-12-11T07:12:42.446Z,-1.00
2022-12-11T07:15:14.372Z,-1.00
2022-12-11T07:17:48.429Z,-1.10
2022-12-11T07:20:15.567Z,-1.00
2022-12-11T07:22:53.383Z,-0.90
2022-12-11T07:25:23.808Z,-0.90
2022-12-11T07:27:59.982Z,-0.70
2022-12-11T07:30:27.056Z,-0.70
2022-12-11T07:32:54.236Z,-0.80
2022-12-11T07:35:27.666Z,-0.60
2022-12-11T07:37:54.871Z,-0.60
2022-12-11T07:40:28.529Z,-0.70
2022-12-11T07:43:03.074Z,-0.70
2022-12-11T07:45:49.562Z,-0.40
2022-12-11T07:48:23.512Z,-0.30
2022-12-11T07:50:50.711Z,-0.10
2022-12-11T07:53:26.963Z,0.00
2022-12-11T07:55:54.182Z,0.10
2022-12-11T07:58:27.506Z,0.30
2022-12-11T08:00:54.613Z,0.40
2022-12-11T08:03:28.559Z,0.60
2022-12-11T08:05:58.085Z,1.50
2022-12-11T08:08:31.613Z,3.10
2022-12-11T08:11:03.237Z,4.30
2022-12-11T08:13:30.639Z,5.60
2022-12-11T08:16:08.855Z,4.90
2022-12-11T08:18:36.756Z,3.40
2022-12-11T08:21:22.617Z,2.60
2022-12-11T08:23:56.656Z,2.20
2022-12-11T08:26:30.092Z,1.80
2022-12-11T08:29:04.623Z,1.80
2022-12-11T08:31:31.975Z,1.90
2022-12-11T08:34:05.570Z,2.10
2022-12-11T08:36:42.569Z,2.10
2022-12-11T08:39:18.200Z,2.00
2022-12-11T08:41:54.105Z,2.00
2022-12-11T08:44:27.369Z,2.10
2022-12-11T08:47:01.563Z,2.30
2022-12-11T08:49:35.697Z,2.50
2022-12-11T09:00:20.682Z,2.80
2022-12-11T09:02:48.714Z,3.20
2022-12-11T09:05:22.487Z,3.50
2022-12-11T09:07:49.618Z,3.70
2022-12-11T09:10:16.784Z,3.80
2022-12-11T09:12:50.499Z,3.90
2022-12-11T09:15:25.783Z,4.10
2022-12-11T09:17:53.075Z,4.20
2022-12-11T09:20:26.599Z,4.50
2022-12-11T09:23:00.577Z,4.50
2022-12-11T09:25:28.658Z,4.30
2022-12-11T09:28:02.561Z,4.50
2022-12-11T09:30:30.180Z,4.60
2022-12-11T09:33:03.942Z,4.70
2022-12-11T09:35:31.815Z,4.90
2022-12-11T09:38:05.825Z,5.10
2022-12-11T09:40:33.072Z,5.30
2022-12-11T09:43:47.628Z,5.50
2022-12-11T09:46:16.071Z,5.60
2022-12-11T09:48:54.864Z,5.70
2022-12-11T09:51:32.212Z,5.80
2022-12-11T09:54:07.543Z,5.80
2022-12-11T09:56:45.908Z,5.90
2022-12-11T09:59:58.475Z,6.00
2022-12-11T10:02:40.652Z,6.10
2022-12-11T10:05:24.687Z,6.10
2022-12-11T10:08:06.421Z,6.10
2022-12-11T10:11:16.531Z,6.10
2022-12-11T10:14:04.811Z,6.20
2022-12-11T10:16:51.699Z,6.30
2022-12-11T10:19:21.850Z,6.30
2022-12-11T10:21:56.522Z,6.30
2022-12-11T10:27:42.570Z,6.20
2022-12-11T10:30:55.490Z,6.30
2022-12-11T10:33:40.253Z,6.40
2022-12-11T10:36:14.485Z,6.50
2022-12-11T10:38:43.886Z,6.50
2022-12-11T10:41:20.513Z,6.50
2022-12-11T10:43:49.405Z,6.60
2022-12-11T10:46:34.499Z,6.70
2022-12-11T10:49:01.808Z,6.80
2022-12-11T10:51:38.450Z,6.90
2022-12-11T10:54:24.320Z,6.90
2022-12-11T10:56:57.628Z,7.00
2022-12-11T10:59:37.759Z,7.10
2022-12-11T11:02:12.461Z,7.20
2022-12-11T11:04:48.538Z,7.30
2022-12-11T11:07:32.479Z,7.40
2022-12-11T11:10:11.736Z,7.50
2022-12-11T11:12:55.489Z,7.70
2022-12-11T11:15:38.541Z,7.80
2022-12-11T11:18:12.974Z,7.90
2022-12-11T11:20:52.509Z,8.00
2022-12-11T11:23:20.081Z,8.10
2022-12-11T11:26:01.620Z,8.20
2022-12-11T11:28:38.916Z,8.30
2022-12-11T11:31:20.547Z,8.30
2022-12-11T11:34:14.511Z,8.40
2022-12-11T11:36:41.601Z,8.50
2022-12-11T11:39:35.558Z,8.60
2022-12-11T11:42:25.521Z,8.70
2022-12-11T11:45:37.531Z,8.80
2022-12-11T11:48:46.239Z,9.00
2022-12-11T11:51:31.558Z,9.10
2022-12-11T11:54:07.539Z,9.20
2022-12-11T11:56:43.650Z,9.40
2022-12-11T11:59:16.086Z,9.40
2022-12-11T12:01:50.719Z,9.50
2022-12-11T12:04:17.883Z,9.60
2022-12-11T12:07:16.653Z,9.70
2022-12-11T12:10:14.857Z,9.60
2022-12-11T12:13:52.723Z,9.70
2022-12-11T12:16:59.358Z,9.70
2022-12-11T12:20:03.692Z,9.60
2022-12-11T12:23:11.611Z,9.60
2022-12-11T12:25:52.522Z,9.70
2022-12-11T12:28:58.582Z,9.70
2022-12-11T12:32:00.636Z,9.70
2022-12-11T12:35:05.025Z,9.80
2022-12-11T12:37:53.728Z,9.90
2022-12-11T12:40:35.791Z,9.90
2022-12-11T12:43:08.601Z,10.00
2022-12-11T12:45:55.656Z,10.00
2022-12-11T12:48:22.780Z,10.00
2022-12-11T12:50:56.720Z,9.90
2022-12-11T12:53:26.564Z,9.90
2022-12-11T12:56:00.605Z,9.80
2022-12-11T12:58:35.803Z,9.80
2022-12-11T13:01:18.676Z,9.90
2022-12-11T13:04:05.622Z,10.00
2022-12-11T13:06:45.669Z,10.10
2022-12-11T13:09:32.594Z,10.30
2022-12-11T13:11:59.577Z,10.30
2022-12-11T13:14:39.598Z,10.20
2022-12-11T13:17:36.486Z,10.20
2022-12-11T13:20:28.567Z,10.30
2022-12-11T13:23:07.889Z,10.30
2022-12-11T13:26:03.626Z,10.40
2022-12-11T13:28:31.807Z,10.40
2022-12-11T13:31:14.701Z,10.30
2022-12-11T13:33:50.048Z,10.20
2022-12-11T13:36:26.755Z,10.10
2022-12-11T13:39:08.761Z,10.10
2022-12-11T13:41:43.753Z,10.20
2022-12-11T13:44:20.528Z,10.10
2022-12-11T13:46:53.718Z,10.20
2022-12-11T13:49:30.720Z,10.10
2022-12-11T13:52:05.731Z,10.10
2022-12-11T13:54:35.107Z,10.10
2022-12-11T13:57:13.721Z,10.00
2022-12-11T13:59:43.781Z,10.10
2022-12-11T14:02:39.740Z,10.10
2022-12-11T14:05:11.344Z,10.10
2022-12-11T14:07:54.689Z,10.00
2022-12-11T14:10:24.819Z,9.90
2022-12-11T14:13:09.866Z,9.90
2022-12-11T14:15:43.785Z,9.90
2022-12-11T14:18:18.149Z,9.80
2022-12-11T14:20:51.676Z,9.80
2022-12-11T14:23:21.329Z,9.80
2022-12-11T14:26:08.778Z,9.70
2022-12-11T14:28:41.169Z,9.70
2022-12-11T14:31:14.639Z,9.60
2022-12-11T14:33:48.901Z,9.60
2022-12-11T14:36:22.679Z,9.50
2022-12-11T14:39:00.076Z,9.50
2022-12-11T14:42:04.744Z,9.50
2022-12-11T14:44:37.637Z,9.40
2022-12-11T14:47:16.760Z,9.30
2022-12-11T14:50:20.600Z,9.30
2022-12-11T14:52:53.439Z,9.20
2022-12-11T14:55:44.849Z,9.20
2022-12-11T14:58:23.459Z,9.10
2022-12-11T15:01:36.740Z,9.10
2022-12-11T15:04:34.638Z,9.00
2022-12-11T15:07:01.916Z,9.00
2022-12-11T15:09:45.742Z,8.90
2022-12-11T15:12:33.994Z,8.80
2022-12-11T15:15:10.869Z,8.80
2022-12-11T15:17:49.689Z,8.70
2022-12-11T15:20:34.781Z,8.60
2022-12-11T15:23:01.911Z,8.60
2022-12-11T15:25:35.822Z,8.40
2022-12-11T15:28:09.793Z,8.40
2022-12-11T15:30:36.786Z,8.30
2022-12-11T15:33:16.815Z,8.20
2022-12-11T15:35:56.719Z,8.10
2022-12-11T15:38:41.628Z,8.00
2022-12-11T15:41:19.254Z,7.90
2022-12-11T15:43:58.071Z,7.80
2022-12-11T15:46:26.161Z,7.70
2022-12-11T15:48:59.718Z,7.60
2022-12-11T15:51:34.487Z,7.50
2022-12-11T15:54:03.310Z,7.40
2022-12-11T15:56:36.814Z,7.20
2022-12-11T15:59:04.560Z,7.10
2022-12-11T16:01:37.768Z,7.00
2022-12-11T16:04:11.641Z,7.00
2022-12-11T16:06:44.709Z,6.90
2022-12-11T16:09:11.836Z,6.80
2022-12-11T16:11:45.663Z,6.70
2022-12-11T16:14:18.678Z,6.70
2022-12-11T16:16:52.789Z,6.50
2022-12-11T16:19:19.763Z,6.40
2022-12-11T16:21:53.628Z,6.20
2022-12-11T16:24:20.613Z,5.90
2022-12-11T16:26:53.888Z,5.80
2022-12-11T16:29:20.926Z,5.50
2022-12-11T16:31:48.233Z,5.30
2022-12-11T16:34:21.693Z,5.10
2022-12-11T16:36:48.747Z,5.10
2022-12-11T16:39:22.691Z,5.00
2022-12-11T16:41:49.661Z,4.90
2022-12-11T16:44:27.776Z,4.70
2022-12-11T16:46:55.114Z,4.60
2022-12-11T16:49:22.465Z,4.40
2022-12-11T16:51:55.738Z,4.30
2022-12-11T16:54:22.744Z,4.10
2022-12-11T16:56:56.627Z,4.10
2022-12-11T16:59:23.639Z,4.00
2022-12-11T17:01:56.866Z,3.80
2022-12-11T17:04:23.846Z,3.70
2022-12-11T17:06:57.823Z,3.60
2022-12-11T17:09:31.768Z,3.60
2022-12-11T17:11:58.751Z,3.70
2022-12-11T17:14:32.717Z,3.70
2022-12-11T17:16:59.783Z,3.90
2022-12-11T17:19:33.724Z,4.00
2022-12-11T17:22:10.751Z,4.00
2022-12-11T17:24:38.187Z,4.00
2022-12-11T17:27:11.747Z,3.80
2022-12-11T17:29:45.842Z,3.90
2022-12-11T17:32:12.762Z,3.90
2022-12-11T17:34:40.711Z,3.90
2022-12-11T17:37:14.702Z,3.80
2022-12-11T17:39:41.735Z,3.90
2022-12-11T17:42:15.795Z,3.70
2022-12-11T17:44:42.939Z,3.70
2022-12-11T17:47:16.705Z,3.60
2022-12-11T17:49:50.731Z,3.40
2022-12-11T17:52:18.392Z,3.40
2022-12-11T17:54:51.790Z,3.40
2022-12-11T17:57:18.926Z,3.20
2022-12-11T17:59:46.029Z,3.00
2022-12-11T18:02:19.767Z,2.90
2022-12-11T18:04:46.764Z,2.80
2022-12-11T18:07:20.772Z,2.70
2022-12-11T18:09:47.766Z,2.70
2022-12-11T18:12:21.808Z,2.70
2022-12-11T18:14:48.886Z,2.50
2022-12-11T18:17:22.734Z,2.50
2022-12-11T18:19:49.783Z,2.40
2022-12-11T18:22:23.713Z,2.20
2022-12-11T18:24:50.711Z,2.20
2022-12-11T18:27:17.870Z,2.20
2022-12-11T18:29:51.753Z,2.10
2022-12-11T18:32:18.809Z,2.10
2022-12-11T18:34:56.262Z,2.10
2022-12-11T18:37:27.694Z,2.00
2022-12-11T18:40:01.807Z,2.00
2022-12-11T18:42:35.839Z,2.00
2022-12-11T18:45:09.913Z,2.00
2022-12-11T18:47:37.017Z,1.90
2022-12-11T18:50:11.746Z,1.80
2022-12-11T18:52:45.721Z,1.80
2022-12-11T18:55:19.844Z,1.70
2022-12-11T18:57:53.797Z,1.70
2022-12-11T19:00:27.821Z,1.80
2022-12-11T19:02:54.771Z,1.70
2022-12-11T19:05:28.769Z,1.70
2022-12-11T19:07:55.845Z,1.60
2022-12-11T19:10:22.922Z,1.60
2022-12-11T19:12:56.725Z,1.50
2022-12-11T19:15:24.277Z,1.40
2022-12-11T19:17:57.765Z,1.40
2022-12-11T19:20:47.996Z,1.40
2022-12-11T19:23:17.703Z,1.30
2022-12-11T19:25:45.849Z,1.30
2022-12-11T19:28:19.843Z,1.40
2022-12-11T19:30:47.928Z,1.40
2022-12-11T19:33:21.793Z,1.50
2022-12-11T19:35:55.802Z,1.60
2022-12-11T19:38:29.771Z,1.70
2022-12-11T19:40:57.085Z,1.60
2022-12-11T19:43:24.036Z,1.60
2022-12-11T19:45:57.718Z,1.60
2022-12-11T19:48:24.748Z,1.50
2022-12-11T19:50:57.725Z,1.40
2022-12-11T19:53:30.838Z,1.30
2022-12-11T19:55:57.861Z,1.30
2022-12-11T19:58:31.867Z,1.30
2022-12-11T20:00:58.935Z,1.30
2022-12-11T20:03:32.825Z,1.30
2022-12-11T20:06:09.073Z,1.30
2022-12-11T20:08:45.622Z,1.20
2022-12-11T20:11:17.896Z,1.20
2022-12-11T20:13:55.855Z,1.20
2022-12-11T20:16:39.483Z,1.30
2022-12-11T20:19:16.949Z,1.20
2022-12-11T20:21:43.938Z,1.10
2022-12-11T20:24:11.412Z,1.20
2022-12-11T20:26:44.874Z,1.30
2022-12-11T20:29:12.681Z,1.40
2022-12-11T20:31:46.864Z,1.50
2022-12-11T20:34:14.079Z,1.60
2022-12-11T20:36:54.864Z,1.60
2022-12-11T20:39:21.877Z,1.60
2022-12-11T20:41:55.820Z,1.50
2022-12-11T20:44:22.796Z,1.40
2022-12-11T20:46:49.719Z,1.30
2022-12-11T20:49:22.920Z,1.20
2022-12-11T20:51:50.155Z,1.30
2022-12-11T20:54:17.180Z,1.20
2022-12-11T20:56:50.904Z,1.30
2022-12-11T20:59:18.099Z,1.10
2022-12-11T21:01:51.971Z,1.00
2022-12-11T21:04:19.183Z,0.90
2022-12-11T21:06:52.785Z,0.90
2022-12-11T21:09:19.804Z,0.80
2022-12-11T21:11:52.796Z,0.80
2022-12-11T21:14:20.004Z,0.70
2022-12-11T21:16:53.966Z,0.60
2022-12-11T21:19:29.054Z,0.60
2022-12-11T21:22:09.813Z,0.40
2022-12-11T21:24:36.743Z,0.40
2022-12-11T21:27:09.876Z,0.40
2022-12-11T21:29:36.979Z,0.40
2022-12-11T21:32:10.868Z,0.50
2022-12-11T21:34:38.087Z,0.50
2022-12-11T21:37:05.319Z,0.60
2022-12-11T21:39:39.552Z,0.60
2022-12-11T21:42:12.823Z,0.70
2022-12-11T21:47:40.889Z,0.70
2022-12-11T21:50:08.251Z,0.60
2022-12-11T21:52:43.796Z,0.50
2022-12-11T21:55:11.903Z,0.40
2022-12-11T21:57:46.986Z,0.30
2022-12-11T22:00:14.713Z,0.20
2022-12-11T22:02:42.223Z,0.20
2022-12-11T22:05:15.955Z,0.20
2022-12-11T22:07:43.185Z,0.20
2022-12-11T22:10:16.865Z,0.20
2022-12-11T22:12:50.864Z,0.20
2022-12-11T22:15:18.122Z,0.10
2022-12-11T22:17:52.033Z,-0.10
2022-12-11T22:20:19.206Z,-0.30
2022-12-11T22:22:46.380Z,-0.40
2022-12-11T22:25:20.047Z,-0.30
2022-12-11T22:27:47.171Z,-0.30
2022-12-11T22:30:20.947Z,-0.30
2022-12-11T22:32:48.246Z,-0.40
2022-12-11T22:35:27.373Z,-0.50
2022-12-11T22:38:00.978Z,-0.40
2022-12-11T22:40:28.892Z,-0.40
2022-12-11T22:43:03.016Z,-0.50
2022-12-11T22:45:29.998Z,-0.40
2022-12-11T22:47:57.110Z,-0.40
2022-12-11T22:50:31.013Z,-0.30
2022-12-11T22:52:58.116Z,-0.20
2022-12-11T22:55:25.501Z,-0.30
2022-12-11T22:57:58.922Z,-0.40
2022-12-11T23:00:26.024Z,-0.60
2022-12-11T23:02:59.933Z,-0.80
2022-12-11T23:05:34.035Z,-0.90
2022-12-11T23:08:01.109Z,-0.90
2022-12-11T23:10:28.182Z,-0.90
2022-12-11T23:13:01.834Z,-0.90
2022-12-11T23:15:28.849Z,-0.90
2022-12-11T23:18:02.827Z,-0.80
2022-12-11T23:20:30.280Z,-0.70
2022-12-11T23:23:03.806Z,-0.70
2022-12-11T23:25:31.127Z,-0.60
2022-12-11T23:28:04.952Z,-0.50
2022-12-11T23:30:33.322Z,-0.40
2022-12-11T23:33:06.786Z,-0.20
2022-12-11T23:35:33.818Z,-0.10
2022-12-11T23:38:06.939Z,0.00
2022-12-11T23:40:40.879Z,0.10
2022-12-11T23:43:07.972Z,0.10
2022-12-11T23:45:42.201Z,0.30
2022-12-11T23:48:17.363Z,0.20
2022-12-11T23:50:47.179Z,0.10
2022-12-11T23:53:14.855Z,0.00
2022-12-11T23:55:50.036Z,0.00
2022-12-11T23:58:24.575Z,-0.10
